createdAt,value
2023-01-11T00:00:40.365Z,3.05
2023-01-11T00:03:14.511Z,3.05
2023-01-11T00:05:48.231Z,3.03
2023-01-11T00:08:22.098Z,4.57
2023-01-11T00:10:57.427Z,4.63
2023-01-11T00:13:31.558Z,3.90
2023-01-11T00:16:09.253Z,3.75
2023-01-11T00:18:43.023Z,3.70
2023-01-11T00:21:16.892Z,3.50
2023-01-11T00:23:51.173Z,3.33
2023-01-11T00:26:26.265Z,4.47
2023-01-11T00:29:00.126Z,4.13
2023-01-11T00:31:34.763Z,3.30
2023-01-11T00:34:08.288Z,4.20
2023-01-11T00:36:42.147Z,3.65
2023-01-11T00:39:15.831Z,4.00
2023-01-11T00:42:08.765Z,3.63
2023-01-11T00:44:59.599Z,4.15
2023-01-11T00:47:51.157Z,3.35
2023-01-11T00:50:25.063Z,3.60
2023-01-11T00:53:00.222Z,3.45
2023-01-11T00:55:34.167Z,3.28
2023-01-11T00:58:09.351Z,3.03
2023-01-11T01:00:42.889Z,3.00
2023-01-11T01:03:16.744Z,3.63
2023-01-11T01:05:55.586Z,3.25
2023-01-11T01:11:02.888Z,3.80
2023-01-11T01:13:55.440Z,4.03
2023-01-11T01:16:29.182Z,3.78
2023-01-11T01:19:03.056Z,3.25
2023-01-11T01:21:37.433Z,3.13
2023-01-11T01:24:11.939Z,3.85
2023-01-11T01:26:45.550Z,4.13
2023-01-11T01:29:20.734Z,3.80
2023-01-11T01:31:54.305Z,4.00
2023-01-11T01:34:28.229Z,3.78
2023-01-11T01:37:01.803Z,3.85
2023-01-11T01:39:35.683Z,3.78
2023-01-11T01:42:14.437Z,3.70
2023-01-11T01:47:38.320Z,3.88
2023-01-11T01:50:17.132Z,3.30
2023-01-11T01:52:54.523Z,3.33
2023-01-11T01:55:32.568Z,3.50
2023-01-11T01:58:10.314Z,3.40
2023-01-11T02:00:47.039Z,3.45
2023-01-11T02:03:23.753Z,3.47
2023-01-11T02:05:57.563Z,3.55
2023-01-11T02:08:37.340Z,3.08
2023-01-11T02:11:28.414Z,2.95
2023-01-11T02:14:04.783Z,3.58
2023-01-11T02:16:39.951Z,3.97
2023-01-11T02:19:25.287Z,3.22
2023-01-11T02:22:18.465Z,3.78
2023-01-11T02:25:17.719Z,3.65
2023-01-11T02:28:09.193Z,3.45
2023-01-11T02:30:54.661Z,3.00
2023-01-11T02:33:38.708Z,2.17
2023-01-11T02:36:25.943Z,3.22
2023-01-11T02:39:12.260Z,2.88
2023-01-11T02:42:10.117Z,3.10
2023-01-11T02:45:03.454Z,2.40
2023-01-11T02:47:46.197Z,2.40
2023-01-11T02:50:26.232Z,2.85
2023-01-11T02:53:04.248Z,2.38
2023-01-11T02:55:42.678Z,2.58
2023-01-11T02:58:17.870Z,2.65
2023-01-11T03:00:55.640Z,2.72
2023-01-11T03:03:29.462Z,2.58
2023-01-11T03:06:06.153Z,2.42
2023-01-11T03:09:09.137Z,2.30
2023-01-11T03:12:15.481Z,2.35
2023-01-11T03:15:00.096Z,2.00
2023-01-11T03:17:46.244Z,2.13
2023-01-11T03:20:25.179Z,1.73
2023-01-11T03:23:12.955Z,1.80
2023-01-11T03:25:57.920Z,2.55
2023-01-11T03:28:37.950Z,2.00
2023-01-11T03:31:19.506Z,1.67
2023-01-11T03:34:01.462Z,1.70
2023-01-11T03:36:39.633Z,1.95
2023-01-11T03:39:21.582Z,1.73
2023-01-11T03:41:59.235Z,1.38
2023-01-11T03:44:40.533Z,1.55
2023-01-11T03:47:16.837Z,1.80
2023-01-11T03:49:55.732Z,1.92
2023-01-11T03:52:33.860Z,1.33
2023-01-11T03:55:11.017Z,1.73
2023-01-11T03:57:51.451Z,1.75
2023-01-11T04:00:27.028Z,1.98
2023-01-11T04:03:01.848Z,1.88
2023-01-11T04:05:39.638Z,1.42
2023-01-11T04:08:13.222Z,1.58
2023-01-11T04:10:47.129Z,1.58
2023-01-11T04:13:20.921Z,1.98
2023-01-11T04:15:55.214Z,1.52
2023-01-11T04:18:28.799Z,1.83
2023-01-11T04:21:03.951Z,1.60
2023-01-11T04:23:37.800Z,1.58
2023-01-11T04:26:12.024Z,1.70
2023-01-11T04:28:46.065Z,1.73
2023-01-11T04:31:20.096Z,2.35
2023-01-11T04:33:53.889Z,1.60
2023-01-11T04:36:31.135Z,2.20
2023-01-11T04:39:05.040Z,1.20
2023-01-11T04:41:56.991Z,1.40
2023-01-11T04:44:30.704Z,1.48
2023-01-11T04:47:04.576Z,1.10
2023-01-11T04:49:38.190Z,1.13
2023-01-11T04:52:14.688Z,1.80
2023-01-11T04:54:48.838Z,1.60
2023-01-11T04:57:23.114Z,1.80
2023-01-11T04:59:56.723Z,1.40
2023-01-11T05:02:30.518Z,1.30
2023-01-11T05:05:04.435Z,1.52
2023-01-11T05:07:40.965Z,1.40
2023-01-11T05:10:14.685Z,1.50
2023-01-11T05:12:48.567Z,1.52
2023-01-11T05:15:22.209Z,1.30
2023-01-11T05:17:56.186Z,1.38
2023-01-11T05:20:29.863Z,1.50
2023-01-11T05:23:05.359Z,2.08
2023-01-11T05:25:39.245Z,1.50
2023-01-11T05:28:13.114Z,1.25
2023-01-11T05:30:52.479Z,1.75
2023-01-11T05:33:26.367Z,1.25
2023-01-11T05:36:00.951Z,1.50
2023-01-11T05:38:36.155Z,1.70
2023-01-11T05:41:14.330Z,1.20
2023-01-11T05:44:08.425Z,1.40
2023-01-11T05:46:43.509Z,1.27
2023-01-11T05:49:17.393Z,1.10
2023-01-11T05:51:51.190Z,1.30
2023-01-11T05:54:26.433Z,1.17
2023-01-11T05:57:00.355Z,1.23
2023-01-11T05:59:34.185Z,0.90
2023-01-11T06:02:08.133Z,1.10
2023-01-11T06:04:42.107Z,0.93
2023-01-11T06:07:15.681Z,0.90
2023-01-11T06:09:50.821Z,0.95
2023-01-11T06:12:24.633Z,1.00
2023-01-11T06:14:58.704Z,0.90
2023-01-11T06:17:32.363Z,0.93
2023-01-11T06:20:07.579Z,0.85
2023-01-11T06:22:41.410Z,0.93
2023-01-11T06:25:16.792Z,1.00
2023-01-11T06:27:50.472Z,0.95
2023-01-11T06:30:25.918Z,0.68
2023-01-11T06:33:05.760Z,0.77
2023-01-11T06:35:41.416Z,0.98
2023-01-11T06:38:17.577Z,1.00
2023-01-11T06:40:58.131Z,0.80
2023-01-11T06:43:33.071Z,0.75
2023-01-11T06:46:10.401Z,0.90
2023-01-11T06:48:44.762Z,1.20
2023-01-11T06:51:18.589Z,1.13
2023-01-11T06:53:52.262Z,0.75
2023-01-11T06:56:27.509Z,1.02
2023-01-11T06:59:01.113Z,1.00
2023-01-11T07:01:35.270Z,1.20
2023-01-11T07:04:09.500Z,1.30
2023-01-11T07:06:43.678Z,1.48
2023-01-11T07:09:17.372Z,1.85
2023-01-11T07:11:52.824Z,1.63
2023-01-11T07:14:26.392Z,1.58
2023-01-11T07:17:00.934Z,1.60
2023-01-11T07:19:34.837Z,1.65
2023-01-11T07:22:08.764Z,1.48
2023-01-11T07:24:42.598Z,1.55
2023-01-11T07:27:18.071Z,1.65
2023-01-11T07:29:53.423Z,1.73
2023-01-11T07:32:28.268Z,1.80
2023-01-11T07:35:02.063Z,1.90
2023-01-11T07:37:38.585Z,2.17
2023-01-11T07:40:13.725Z,2.28
2023-01-11T07:43:08.281Z,2.15
2023-01-11T07:45:46.416Z,2.30
2023-01-11T07:48:35.079Z,3.30
2023-01-11T07:51:08.826Z,2.45
2023-01-11T07:53:42.733Z,2.55
2023-01-11T07:56:16.470Z,2.30
2023-01-11T07:58:51.683Z,2.50
2023-01-11T08:01:25.743Z,2.30
2023-01-11T08:03:59.655Z,2.38
2023-01-11T08:06:33.405Z,2.50
2023-01-11T08:09:07.866Z,2.60
2023-01-11T08:11:58.855Z,2.72
2023-01-11T08:14:42.978Z,3.13
2023-01-11T08:17:17.370Z,3.28
2023-01-11T08:19:51.165Z,2.75
2023-01-11T08:22:24.849Z,3.10
2023-01-11T08:24:58.761Z,2.88
2023-01-11T08:27:32.394Z,2.95
2023-01-11T08:30:09.195Z,2.97
2023-01-11T08:32:42.852Z,2.53
2023-01-11T08:35:16.865Z,2.17
2023-01-11T08:37:50.522Z,2.10
2023-01-11T08:40:25.531Z,2.25
2023-01-11T08:42:59.608Z,1.60
2023-01-11T08:45:35.113Z,1.60
2023-01-11T08:48:08.863Z,1.73
2023-01-11T08:50:44.929Z,1.48
2023-01-11T08:53:20.691Z,2.05
2023-01-11T08:55:54.736Z,1.90
2023-01-11T08:58:28.434Z,2.10
2023-01-11T09:01:04.051Z,2.10
2023-01-11T09:03:37.673Z,2.72
2023-01-11T09:06:11.555Z,2.53
2023-01-11T09:08:45.569Z,2.40
2023-01-11T09:11:37.152Z,2.50
2023-01-11T09:14:10.651Z,3.30
2023-01-11T09:16:45.754Z,2.83
2023-01-11T09:19:19.220Z,2.47
2023-01-11T09:21:53.436Z,2.72
2023-01-11T09:24:27.142Z,2.97
2023-01-11T09:27:01.668Z,2.67
2023-01-11T09:29:37.277Z,2.70
2023-01-11T09:32:12.943Z,2.60
2023-01-11T09:34:47.298Z,2.63
2023-01-11T09:37:22.686Z,2.15
2023-01-11T09:39:58.030Z,2.72
2023-01-11T09:42:36.419Z,2.70
2023-01-11T09:45:15.909Z,1.98
2023-01-11T09:47:54.512Z,2.63
2023-01-11T09:50:31.968Z,2.75
2023-01-11T09:53:09.706Z,2.60
2023-01-11T09:55:47.075Z,2.45
2023-01-11T09:58:41.950Z,2.17
2023-01-11T10:01:24.035Z,2.40
2023-01-11T10:04:16.450Z,2.17
2023-01-11T10:07:12.975Z,2.15
2023-01-11T10:18:37.851Z,1.90
2023-01-11T10:22:13.280Z,1.80
2023-01-11T10:24:50.422Z,1.90
2023-01-11T10:27:31.134Z,2.53
2023-01-11T10:30:33.315Z,1.77
2023-01-11T10:33:24.905Z,1.70
2023-01-11T10:36:14.799Z,1.80
2023-01-11T10:39:07.906Z,1.63
2023-01-11T10:41:52.426Z,1.73
2023-01-11T10:44:34.454Z,1.60
2023-01-11T10:47:16.290Z,2.03
2023-01-11T10:49:56.168Z,1.92
2023-01-11T10:52:41.415Z,1.88
2023-01-11T10:55:21.933Z,2.53
2023-01-11T10:58:05.351Z,1.88
2023-01-11T11:00:48.500Z,2.42
2023-01-11T11:03:39.720Z,1.90
2023-01-11T11:06:22.085Z,2.10
2023-01-11T11:09:05.530Z,1.95
2023-01-11T11:11:42.599Z,2.47
2023-01-11T11:14:24.796Z,2.10
2023-01-11T11:17:10.256Z,1.98
2023-01-11T11:19:43.982Z,1.70
2023-01-11T11:22:19.977Z,1.85
2023-01-11T11:25:01.928Z,2.63
2023-01-11T11:27:42.250Z,2.28
2023-01-11T11:30:28.859Z,1.70
2023-01-11T11:33:07.080Z,1.88
2023-01-11T11:35:43.939Z,3.08
2023-01-11T11:38:23.933Z,1.65
2023-01-11T11:41:04.989Z,1.83
2023-01-11T11:43:40.063Z,1.98
2023-01-11T11:46:25.229Z,2.30
2023-01-11T11:49:13.308Z,3.15
2023-01-11T11:51:49.208Z,2.40
2023-01-11T11:54:28.047Z,2.10
2023-01-11T11:57:15.638Z,2.35
2023-01-11T11:59:51.673Z,2.65
2023-01-11T12:02:30.155Z,2.90
2023-01-11T12:07:54.724Z,2.38
2023-01-11T12:10:31.007Z,2.28
2023-01-11T12:13:28.675Z,1.85
2023-01-11T12:16:04.935Z,1.80
2023-01-11T12:18:43.436Z,1.90
2023-01-11T12:21:21.185Z,1.98
2023-01-11T12:24:10.717Z,2.50
2023-01-11T12:26:54.103Z,3.22
2023-01-11T12:29:51.569Z,2.05
2023-01-11T12:32:52.554Z,2.90
2023-01-11T12:35:41.904Z,2.45
2023-01-11T12:38:39.669Z,2.40
2023-01-11T12:41:47.798Z,2.63
2023-01-11T12:44:43.568Z,2.72
2023-01-11T12:47:39.729Z,2.90
2023-01-11T12:50:21.689Z,2.40
2023-01-11T12:53:15.539Z,2.20
2023-01-11T12:56:02.851Z,3.08
2023-01-11T12:58:44.246Z,2.22
2023-01-11T13:01:41.843Z,2.40
2023-01-11T13:04:52.193Z,2.33
2023-01-11T13:07:36.470Z,2.78
2023-01-11T13:10:22.989Z,2.58
2023-01-11T13:13:02.828Z,3.00
2023-01-11T13:15:45.187Z,2.20
2023-01-11T13:18:28.097Z,2.50
2023-01-11T13:21:13.023Z,2.80
2023-01-11T13:23:50.509Z,2.80
2023-01-11T13:26:26.502Z,2.97
2023-01-11T13:29:04.135Z,2.75
2023-01-11T13:31:38.574Z,3.33
2023-01-11T13:34:20.442Z,2.90
2023-01-11T13:36:58.441Z,2.85
2023-01-11T13:39:40.169Z,2.53
2023-01-11T13:42:18.175Z,2.47
2023-01-11T13:44:58.304Z,2.53
2023-01-11T13:47:38.433Z,1.98
2023-01-11T13:50:21.570Z,2.75
2023-01-11T13:53:03.985Z,2.45
2023-01-11T13:55:44.440Z,2.45
2023-01-11T13:58:25.466Z,2.90
2023-01-11T14:01:07.563Z,2.90
2023-01-11T14:03:47.785Z,2.30
2023-01-11T14:06:43.138Z,2.40
2023-01-11T14:09:31.200Z,2.42
2023-01-11T14:12:15.143Z,2.15
2023-01-11T14:15:11.970Z,2.17
2023-01-11T14:18:11.303Z,2.30
2023-01-11T14:20:51.596Z,2.83
2023-01-11T14:23:36.445Z,2.97
2023-01-11T14:26:34.125Z,2.78
2023-01-11T14:29:20.762Z,2.23
2023-01-11T14:32:11.074Z,2.72
2023-01-11T14:35:05.235Z,2.15
2023-01-11T14:38:07.298Z,2.67
2023-01-11T14:41:03.252Z,2.60
2023-01-11T14:44:06.150Z,3.20
2023-01-11T14:47:06.594Z,2.53
2023-01-11T14:49:58.587Z,1.77
2023-01-11T14:52:40.539Z,2.25
2023-01-11T14:55:22.000Z,2.10
2023-01-11T14:58:06.327Z,3.13
2023-01-11T15:01:11.530Z,2.20
2023-01-11T15:03:57.282Z,2.50
2023-01-11T15:06:32.637Z,2.47
2023-01-11T15:09:45.310Z,1.83
2023-01-11T15:12:20.507Z,1.95
2023-01-11T15:15:00.110Z,2.53
2023-01-11T15:17:52.325Z,2.13
2023-01-11T15:20:27.162Z,3.20
2023-01-11T15:23:02.743Z,2.55
2023-01-11T15:25:37.002Z,3.00
2023-01-11T15:28:52.371Z,3.10
2023-01-11T15:31:39.944Z,3.58
2023-01-11T15:34:41.506Z,2.70
2023-01-11T15:37:53.633Z,3.10
2023-01-11T15:40:30.064Z,5.05
2023-01-11T15:43:38.236Z,4.75
2023-01-11T15:46:55.797Z,3.93
2023-01-11T15:50:02.960Z,2.97
2023-01-11T15:53:26.402Z,3.13
2023-01-11T15:56:38.365Z,3.13
2023-01-11T15:59:59.549Z,3.45
2023-01-11T16:03:01.219Z,3.75
2023-01-11T16:05:40.886Z,2.80
2023-01-11T16:08:23.978Z,2.65
2023-01-11T16:11:09.623Z,2.92
2023-01-11T16:14:02.701Z,5.13
2023-01-11T16:16:41.336Z,4.45
2023-01-11T16:19:20.981Z,3.00
2023-01-11T16:21:58.935Z,2.78
2023-01-11T16:24:38.382Z,3.47
2023-01-11T16:27:22.220Z,2.40
2023-01-11T16:29:56.983Z,2.47
2023-01-11T16:32:33.459Z,3.22
2023-01-11T16:35:20.269Z,4.30
2023-01-11T16:37:58.226Z,3.08
2023-01-11T16:40:35.974Z,2.83
2023-01-11T16:43:19.966Z,3.25
2023-01-11T16:45:55.121Z,2.50
2023-01-11T16:48:29.848Z,2.97
2023-01-11T16:51:07.789Z,2.78
2023-01-11T16:53:47.053Z,3.50
2023-01-11T16:56:23.903Z,3.58
2023-01-11T16:59:19.150Z,2.47
2023-01-11T17:01:54.840Z,3.13
2023-01-11T17:04:30.873Z,2.85
2023-01-11T17:07:20.564Z,3.22
2023-01-11T17:09:54.582Z,2.67
2023-01-11T17:12:28.727Z,2.50
2023-01-11T17:15:14.378Z,2.90
2023-01-11T17:17:48.371Z,3.50
2023-01-11T17:20:23.820Z,2.60
2023-01-11T17:23:00.251Z,3.20
2023-01-11T17:25:44.248Z,3.42
2023-01-11T17:28:20.497Z,3.80
2023-01-11T17:30:55.263Z,3.53
2023-01-11T17:33:33.052Z,3.90
2023-01-11T17:36:08.336Z,4.15
2023-01-11T17:38:45.413Z,3.80
2023-01-11T17:41:33.967Z,5.03
2023-01-11T17:44:34.952Z,3.90
2023-01-11T17:47:13.306Z,4.18
2023-01-11T17:49:51.561Z,3.65
2023-01-11T17:52:27.519Z,4.18
2023-01-11T17:55:13.946Z,3.90
2023-01-11T17:58:11.093Z,3.50
2023-01-11T18:00:46.478Z,3.10
2023-01-11T18:03:20.237Z,4.78
2023-01-11T18:05:54.195Z,3.67
2023-01-11T18:08:27.847Z,3.47
2023-01-11T18:11:03.061Z,3.88
2023-01-11T18:13:36.729Z,4.18
2023-01-11T18:16:10.776Z,3.97
2023-01-11T18:18:47.327Z,5.07
2023-01-11T18:21:40.959Z,3.83
2023-01-11T18:24:26.341Z,4.13
2023-01-11T18:27:25.573Z,4.18
2023-01-11T18:30:02.537Z,3.90
2023-01-11T18:32:44.241Z,4.32
2023-01-11T18:35:19.330Z,3.83
2023-01-11T18:37:53.479Z,4.80
2023-01-11T18:40:27.142Z,3.83
2023-01-11T18:43:02.535Z,3.83
2023-01-11T18:45:36.270Z,3.40
2023-01-11T18:48:12.477Z,4.10
2023-01-11T18:50:46.500Z,3.92
2023-01-11T18:53:20.336Z,4.07
2023-01-11T18:55:53.972Z,3.88
2023-01-11T18:58:29.525Z,3.92
2023-01-11T19:01:05.647Z,3.28
2023-01-11T19:03:39.735Z,3.38
2023-01-11T19:06:14.026Z,4.07
2023-01-11T19:08:47.960Z,3.78
2023-01-11T19:11:23.981Z,5.63
2023-01-11T19:13:59.541Z,4.32
2023-01-11T19:16:34.025Z,4.30
2023-01-11T19:19:09.076Z,4.82
2023-01-11T19:21:42.820Z,4.65
2023-01-11T19:24:16.558Z,4.70
2023-01-11T19:26:50.913Z,4.82
2023-01-11T19:29:26.616Z,4.68
2023-01-11T19:32:00.337Z,4.50
2023-01-11T19:34:35.335Z,3.88
2023-01-11T19:37:09.350Z,3.30
2023-01-11T19:39:43.421Z,3.45
2023-01-11T19:42:17.211Z,4.72
2023-01-11T19:44:52.750Z,3.75
2023-01-11T19:47:26.471Z,3.45
2023-01-11T19:50:01.162Z,4.15
2023-01-11T19:52:35.061Z,5.35
2023-01-11T19:55:09.822Z,3.47
2023-01-11T19:57:43.417Z,3.35
2023-01-11T20:00:20.544Z,3.65
2023-01-11T20:02:54.239Z,4.38
2023-01-11T20:05:28.058Z,4.32
2023-01-11T20:08:01.865Z,5.00
2023-01-11T20:10:35.828Z,5.32
2023-01-11T20:13:09.909Z,3.58
2023-01-11T20:15:45.216Z,3.65
2023-01-11T20:18:19.145Z,3.80
2023-01-11T20:20:58.711Z,3.40
2023-01-11T20:23:32.912Z,2.90
2023-01-11T20:26:14.778Z,4.05
2023-01-11T20:28:52.117Z,4.20
2023-01-11T20:31:32.943Z,4.13
2023-01-11T20:34:08.170Z,3.78
2023-01-11T20:36:42.683Z,2.85
2023-01-11T20:39:17.581Z,5.85
2023-01-11T20:41:51.597Z,3.63
2023-01-11T20:44:27.846Z,3.63
2023-01-11T20:47:02.969Z,4.25
2023-01-11T20:49:36.612Z,3.15
2023-01-11T20:52:10.589Z,3.72
2023-01-11T20:54:44.457Z,4.47
2023-01-11T20:57:18.407Z,3.45
2023-01-11T20:59:52.234Z,3.33
2023-01-11T21:02:27.376Z,3.60
2023-01-11T21:05:04.400Z,3.60
2023-01-11T21:07:38.351Z,3.58
2023-01-11T21:10:12.921Z,4.43
2023-01-11T21:15:20.093Z,3.70
2023-01-11T21:17:55.244Z,3.75
2023-01-11T21:20:28.846Z,3.42
2023-01-11T21:23:03.305Z,3.80
2023-01-11T21:25:37.377Z,4.20
2023-01-11T21:28:11.187Z,3.88
2023-01-11T21:30:44.919Z,3.67
2023-01-11T21:33:22.267Z,4.65
2023-01-11T21:35:57.428Z,4.32
2023-01-11T21:38:32.300Z,3.92
2023-01-11T21:41:07.916Z,3.60
2023-01-11T21:43:43.005Z,4.10
2023-01-11T21:46:16.564Z,4.00
2023-01-11T21:48:52.017Z,5.25
2023-01-11T21:51:27.109Z,3.25
2023-01-11T21:54:03.857Z,3.97
2023-01-11T21:56:38.144Z,3.47
2023-01-11T21:59:11.966Z,4.03
2023-01-11T22:01:46.914Z,3.10
2023-01-11T22:04:22.801Z,3.22
2023-01-11T22:06:57.499Z,3.58
2023-01-11T22:09:32.896Z,3.42
2023-01-11T22:12:08.115Z,3.95
2023-01-11T22:14:45.541Z,3.17
2023-01-11T22:17:19.668Z,4.05
2023-01-11T22:19:55.113Z,4.07
2023-01-11T22:22:29.136Z,4.38
2023-01-11T22:25:02.981Z,3.28
2023-01-11T22:27:36.625Z,3.00
2023-01-11T22:30:11.715Z,3.75
2023-01-11T22:32:45.463Z,3.83
2023-01-11T22:35:20.734Z,4.07
2023-01-11T22:37:54.378Z,2.72
2023-01-11T22:40:28.161Z,2.70
2023-01-11T22:43:01.914Z,2.95
2023-01-11T22:45:36.065Z,3.92
2023-01-11T22:48:10.425Z,2.78
2023-01-11T22:50:45.668Z,3.45
2023-01-11T22:53:19.373Z,3.95
2023-01-11T22:55:53.179Z,4.75
2023-01-11T22:58:26.668Z,3.08
2023-01-11T23:01:11.221Z,3.42
2023-01-11T23:03:45.942Z,2.75
2023-01-11T23:06:23.917Z,3.10
2023-01-11T23:08:58.399Z,3.47
2023-01-11T23:11:54.692Z,2.80
2023-01-11T23:14:30.669Z,2.97
2023-01-11T23:17:07.186Z,2.78
2023-01-11T23:19:42.419Z,2.78
2023-01-11T23:22:17.902Z,2.33
2023-01-11T23:24:51.547Z,3.20
2023-01-11T23:27:25.364Z,2.75
2023-01-11T23:29:58.982Z,3.40
2023-01-11T23:32:32.895Z,2.85
2023-01-11T23:35:08.952Z,2.55
2023-01-11T23:37:44.126Z,2.55
2023-01-11T23:40:17.924Z,2.60
2023-01-11T23:42:50.745Z,3.08
2023-01-11T23:45:24.370Z,2.60
2023-01-11T23:47:57.176Z,2.15
2023-01-11T23:50:30.681Z,2.70
2023-01-11T23:53:05.994Z,2.35
2023-01-11T23:55:40.147Z,2.10
2023-01-11T23:58:13.939Z,2.47
